Toyomasa Maru — JJ3927 — position and weather

sailwx.info

Track history (hours):
 
Tides and Currents Weather Stations Pressure Air Temp Water Temp Dewpoint Dewpoint Depression Visibility Wind Speed Wind Dir Waves Ship Positions

Toyomasa Maru

Last reported at 2018-Jun-23 06:54 UTC. Time now 2018-Jun-23 11:58 UTC.
Position N 35°06' E 139°41'.

Length 101 m; draft 6.8 m.

Type: Tanker. MMSI: 431300401.

Date/timePositionNaut miles runAvg speedWind from/ knotsBaromVisibWave heightAir tempDewpointWater temp
2018-Jun-23 06:54N 35°06' E 139°41'512.6
2018-Jun-23 06:28N 35°09' E 139°46'611.8
2018-Jun-23 06:00N 35°15' E 139°46'612.1
2018-Jun-23 05:30N 35°20' E 139°43'611.6
2018-Jun-23 05:00N 35°26' E 139°44'612.1
2018-Jun-23 04:30N 35°30' E 139°49'2 3.4
2018-Jun-23 04:00N 35°32' E 139°48'0 0.0
2018-Jun-23 03:30N 35°32' E 139°48'0 0.0
2018-Jun-23 03:00N 35°32' E 139°48'0 0.0
2018-Jun-23 02:30N 35°32' E 139°48'0 0.0
2018-Jun-23 02:00N 35°32' E 139°48'0 0.0
2018-Jun-23 01:30N 35°32' E 139°48'0 0.0
2018-Jun-23 01:00N 35°32' E 139°48'0 0.0
2018-Jun-23 00:30N 35°32' E 139°48'0 0.1
2018-Jun-23 00:01N 35°32' E 139°48'1 2.5
2018-Jun-22 23:30N 35°31' E 139°49'1 2.8
2018-Jun-22 23:00N 35°31' E 139°50'0 0.0
2018-Jun-22 22:25N 35°31' E 139°50'0 0.1
2018-Jun-22 21:58N 35°31' E 139°50'0 0.1
2018-Jun-22 21:25N 35°31' E 139°50'0 0.0
2018-Jun-22 20:58N 35°31' E 139°50'0 0.1
2018-Jun-22 20:25N 35°31' E 139°50'0 0.0
2018-Jun-22 19:58N 35°31' E 139°50'0 0.1
2018-Jun-22 19:28N 35°31' E 139°50'0 0.0
2018-Jun-22 18:58N 35°31' E 139°50'0 0.0
2018-Jun-22 18:28N 35°31' E 139°50'0 0.0
2018-Jun-22 17:58N 35°31' E 139°50'0 0.1
2018-Jun-22 17:28N 35°31' E 139°51'0 0.0
2018-Jun-22 16:58N 35°31' E 139°51'0 0.0
2018-Jun-22 16:28N 35°31' E 139°51'0 0.0
2018-Jun-22 15:58N 35°31' E 139°51'0 0.0
2018-Jun-22 15:28N 35°31' E 139°51'0 0.0
2018-Jun-22 14:58N 35°31' E 139°51'0 0.0
2018-Jun-22 14:28N 35°31' E 139°51'0 0.0
2018-Jun-22 13:58N 35°31' E 139°51'0 0.0
2018-Jun-22 13:28N 35°31' E 139°51'0 0.0
2018-Jun-22 12:58N 35°31' E 139°51'0 0.0
2018-Jun-22 12:28N 35°31' E 139°51'0 0.0
2018-Jun-22 11:58N 35°31' E 139°51'0 0.0
2018-Jun-22 11:25N 35°31' E 139°51'0 0.0
2018-Jun-22 10:52N 35°31' E 139°51'0 0.0
2018-Jun-22 10:28N 35°31' E 139°51'0 0.0
2018-Jun-22 09:55N 35°31' E 139°51'0 0.0
2018-Jun-22 09:28N 35°31' E 139°51'0 0.0
2018-Jun-22 08:58N 35°31' E 139°51'0 0.1
2018-Jun-22 08:28N 35°31' E 139°50'0 0.0
2018-Jun-22 07:49N 35°31' E 139°50'0 0.0
2018-Jun-22 07:22N 35°31' E 139°50'0 0.1
2018-Jun-22 07:00N 35°31' E 139°51'3 6.0
2018-Jun-22 06:30N 35°31' E 139°54'6 0.8
2018-Jun-21 22:43N 35°30' E 140°01'0 1.0
2018-Jun-21 22:25N 35°30' E 140°01'1 2.6
2018-Jun-21 21:59N 35°31' E 140°00'1 0.6
2018-Jun-21 20:18N 35°32' E 139°60'0 0.2
2018-Jun-21 19:43N 35°32' E 139°60'4 0.1
2018-Jun-20 07:59N 35°32' E 139°55'2 0.2
2018-Jun-19 23:57N 35°32' E 139°57'912.5
2018-Jun-19 23:14N 35°26' E 139°49'312.7
2018-Jun-19 23:01N 35°24' E 139°47'612.4
2018-Jun-19 22:30N 35°19' E 139°44'612.3
2018-Jun-19 22:00N 35°13' E 139°47'8 0.2
2018-Jun-18 04:37N 35°06' E 139°41'214.4
2018-Jun-18 04:29N 35°07' E 139°43'714.1
2018-Jun-18 04:00N 35°13' E 139°46'612.6
2018-Jun-18 03:31N 35°19' E 139°43'612.6
2018-Jun-18 03:00N 35°25' E 139°44'713.1
2018-Jun-18 02:31N 35°31' E 139°48'1 2.3
2018-Jun-18 02:00N 35°32' E 139°48'0 0.0
2018-Jun-18 01:22N 35°32' E 139°48'0 0.0
2018-Jun-18 00:52N 35°32' E 139°48'0 0.0
2018-Jun-18 00:04N 35°32' E 139°48'0 0.0
2018-Jun-17 23:34N 35°32' E 139°48'0 0.0
2018-Jun-17 23:22N 35°32' E 139°48'0 0.0
2018-Jun-17 22:50N 35°32' E 139°48'0 0.3
2018-Jun-17 22:28N 35°32' E 139°48'2 3.4
2018-Jun-17 22:00N 35°31' E 139°49'1 1.5
2018-Jun-17 21:28N 35°31' E 139°50'0 0.1
2018-Jun-17 20:58N 35°31' E 139°50'0 0.1
2018-Jun-17 20:28N 35°31' E 139°50'0 0.1
2018-Jun-17 19:58N 35°31' E 139°50'0 0.1
2018-Jun-17 19:28N 35°31' E 139°50'0 0.0
2018-Jun-17 18:58N 35°31' E 139°50'0 0.0
2018-Jun-17 18:28N 35°31' E 139°50'0 0.1
2018-Jun-17 17:58N 35°31' E 139°50'0 0.0
2018-Jun-17 17:28N 35°31' E 139°50'0 0.0
2018-Jun-17 16:55N 35°31' E 139°50'0 0.0
2018-Jun-17 16:28N 35°31' E 139°50'0 0.0
2018-Jun-17 15:58N 35°31' E 139°50'0 0.0
2018-Jun-17 15:28N 35°31' E 139°50'0 0.0
2018-Jun-17 14:55N 35°31' E 139°50'0 0.0
2018-Jun-17 14:22N 35°31' E 139°50'0 0.0
2018-Jun-17 13:55N 35°31' E 139°50'0 0.0
2018-Jun-17 13:28N 35°31' E 139°50'0 0.0
2018-Jun-17 12:55N 35°31' E 139°50'0 0.0
2018-Jun-17 12:28N 35°31' E 139°50'0 0.1
2018-Jun-17 11:58N 35°31' E 139°50'0 0.0
2018-Jun-17 11:07N 35°31' E 139°50'0 0.0
2018-Jun-17 10:55N 35°31' E 139°50'0 0.0
2018-Jun-17 10:28N 35°31' E 139°50'0 0.0
2018-Jun-17 09:58N 35°31' E 139°50'0 0.0
2018-Jun-17 09:22N 35°31' E 139°50'0 0.0
2018-Jun-17 08:58N 35°31' E 139°50'0 0.0
2018-Jun-17 08:25N 35°31' E 139°50'0 0.1
2018-Jun-17 07:58N 35°31' E 139°50'4 7.0
2018-Jun-17 07:23N 35°27' E 139°50'512.5
2018-Jun-17 07:00N 35°23' E 139°46'611.8
2018-Jun-17 06:30N 35°18' E 139°45'611.8
2018-Jun-17 06:00N 35°12' E 139°47'9 0.2
2018-Jun-15 08:48N 35°05' E 139°40'414.0
2018-Jun-15 08:30N 35°08' E 139°43'713.2
2018-Jun-15 08:00N 35°14' E 139°46'612.5
2018-Jun-15 07:30N 35°20' E 139°43'611.6
2018-Jun-15 07:00N 35°25' E 139°45'713.7
2018-Jun-15 06:30N 35°30' E 139°51'4 0.2
2018-Jun-14 09:54N 35°32' E 139°56'612.1
2018-Jun-14 09:22N 35°27' E 139°50'412.1
2018-Jun-14 09:00N 35°24' E 139°46'611.7
2018-Jun-14 08:30N 35°18' E 139°44'612.1
2018-Jun-14 08:00N 35°12' E 139°47'  
Track history (hours):
 
Tides and Currents Weather Stations Pressure Air Temp Water Temp Dewpoint Dewpoint Depression Visibility Wind Speed Wind Dir Waves Ship Positions

Toyomasa Maru

Last reported at 2018-Jun-23 06:54 UTC. Time now 2018-Jun-23 11:58 UTC.
Position N 35°06' E 139°41'.

Length 101 m; draft 6.8 m.

Type: Tanker. MMSI: 431300401.

Date/timePositionNaut miles runAvg speedWind from/ knotsBaromVisibWave heightAir tempDewpointWater temp
2018-Jun-23 06:54N 35°06' E 139°41'512.6
2018-Jun-23 06:28N 35°09' E 139°46'611.8
2018-Jun-23 06:00N 35°15' E 139°46'612.1
2018-Jun-23 05:30N 35°20' E 139°43'611.6
2018-Jun-23 05:00N 35°26' E 139°44'612.1
2018-Jun-23 04:30N 35°30' E 139°49'2 3.4
2018-Jun-23 04:00N 35°32' E 139°48'0 0.0
2018-Jun-23 03:30N 35°32' E 139°48'0 0.0
2018-Jun-23 03:00N 35°32' E 139°48'0 0.0
2018-Jun-23 02:30N 35°32' E 139°48'0 0.0
2018-Jun-23 02:00N 35°32' E 139°48'0 0.0
2018-Jun-23 01:30N 35°32' E 139°48'0 0.0
2018-Jun-23 01:00N 35°32' E 139°48'0 0.0
2018-Jun-23 00:30N 35°32' E 139°48'0 0.1
2018-Jun-23 00:01N 35°32' E 139°48'1 2.5
2018-Jun-22 23:30N 35°31' E 139°49'1 2.8
2018-Jun-22 23:00N 35°31' E 139°50'0 0.0
2018-Jun-22 22:25N 35°31' E 139°50'0 0.1
2018-Jun-22 21:58N 35°31' E 139°50'0 0.1
2018-Jun-22 21:25N 35°31' E 139°50'0 0.0
2018-Jun-22 20:58N 35°31' E 139°50'0 0.1
2018-Jun-22 20:25N 35°31' E 139°50'0 0.0
2018-Jun-22 19:58N 35°31' E 139°50'0 0.1
2018-Jun-22 19:28N 35°31' E 139°50'0 0.0
2018-Jun-22 18:58N 35°31' E 139°50'0 0.0
2018-Jun-22 18:28N 35°31' E 139°50'0 0.0
2018-Jun-22 17:58N 35°31' E 139°50'0 0.1
2018-Jun-22 17:28N 35°31' E 139°51'0 0.0
2018-Jun-22 16:58N 35°31' E 139°51'0 0.0
2018-Jun-22 16:28N 35°31' E 139°51'0 0.0
2018-Jun-22 15:58N 35°31' E 139°51'0 0.0
2018-Jun-22 15:28N 35°31' E 139°51'0 0.0
2018-Jun-22 14:58N 35°31' E 139°51'0 0.0
2018-Jun-22 14:28N 35°31' E 139°51'0 0.0
2018-Jun-22 13:58N 35°31' E 139°51'0 0.0
2018-Jun-22 13:28N 35°31' E 139°51'0 0.0
2018-Jun-22 12:58N 35°31' E 139°51'0 0.0
2018-Jun-22 12:28N 35°31' E 139°51'0 0.0
2018-Jun-22 11:58N 35°31' E 139°51'0 0.0
2018-Jun-22 11:25N 35°31' E 139°51'0 0.0
2018-Jun-22 10:52N 35°31' E 139°51'0 0.0
2018-Jun-22 10:28N 35°31' E 139°51'0 0.0
2018-Jun-22 09:55N 35°31' E 139°51'0 0.0
2018-Jun-22 09:28N 35°31' E 139°51'0 0.0
2018-Jun-22 08:58N 35°31' E 139°51'0 0.1
2018-Jun-22 08:28N 35°31' E 139°50'0 0.0
2018-Jun-22 07:49N 35°31' E 139°50'0 0.0
2018-Jun-22 07:22N 35°31' E 139°50'0 0.1
2018-Jun-22 07:00N 35°31' E 139°51'3 6.0
2018-Jun-22 06:30N 35°31' E 139°54'6 0.8
2018-Jun-21 22:43N 35°30' E 140°01'0 1.0
2018-Jun-21 22:25N 35°30' E 140°01'1 2.6
2018-Jun-21 21:59N 35°31' E 140°00'1 0.6
2018-Jun-21 20:18N 35°32' E 139°60'0 0.2
2018-Jun-21 19:43N 35°32' E 139°60'4 0.1
2018-Jun-20 07:59N 35°32' E 139°55'2 0.2
2018-Jun-19 23:57N 35°32' E 139°57'912.5
2018-Jun-19 23:14N 35°26' E 139°49'312.7
2018-Jun-19 23:01N 35°24' E 139°47'612.4
2018-Jun-19 22:30N 35°19' E 139°44'612.3
2018-Jun-19 22:00N 35°13' E 139°47'8 0.2
2018-Jun-18 04:37N 35°06' E 139°41'214.4
2018-Jun-18 04:29N 35°07' E 139°43'714.1
2018-Jun-18 04:00N 35°13' E 139°46'612.6
2018-Jun-18 03:31N 35°19' E 139°43'612.6
2018-Jun-18 03:00N 35°25' E 139°44'713.1
2018-Jun-18 02:31N 35°31' E 139°48'1 2.3
2018-Jun-18 02:00N 35°32' E 139°48'0 0.0
2018-Jun-18 01:22N 35°32' E 139°48'0 0.0
2018-Jun-18 00:52N 35°32' E 139°48'0 0.0
2018-Jun-18 00:04N 35°32' E 139°48'0 0.0
2018-Jun-17 23:34N 35°32' E 139°48'0 0.0
2018-Jun-17 23:22N 35°32' E 139°48'0 0.0
2018-Jun-17 22:50N 35°32' E 139°48'0 0.3
2018-Jun-17 22:28N 35°32' E 139°48'2 3.4
2018-Jun-17 22:00N 35°31' E 139°49'1 1.5
2018-Jun-17 21:28N 35°31' E 139°50'0 0.1
2018-Jun-17 20:58N 35°31' E 139°50'0 0.1
2018-Jun-17 20:28N 35°31' E 139°50'0 0.1
2018-Jun-17 19:58N 35°31' E 139°50'0 0.1
2018-Jun-17 19:28N 35°31' E 139°50'0 0.0
2018-Jun-17 18:58N 35°31' E 139°50'0 0.0
2018-Jun-17 18:28N 35°31' E 139°50'0 0.1
2018-Jun-17 17:58N 35°31' E 139°50'0 0.0
2018-Jun-17 17:28N 35°31' E 139°50'0 0.0
2018-Jun-17 16:55N 35°31' E 139°50'0 0.0
2018-Jun-17 16:28N 35°31' E 139°50'0 0.0
2018-Jun-17 15:58N 35°31' E 139°50'0 0.0
2018-Jun-17 15:28N 35°31' E 139°50'0 0.0
2018-Jun-17 14:55N 35°31' E 139°50'0 0.0
2018-Jun-17 14:22N 35°31' E 139°50'0 0.0
2018-Jun-17 13:55N 35°31' E 139°50'0 0.0
2018-Jun-17 13:28N 35°31' E 139°50'0 0.0
2018-Jun-17 12:55N 35°31' E 139°50'0 0.0
2018-Jun-17 12:28N 35°31' E 139°50'0 0.1
2018-Jun-17 11:58N 35°31' E 139°50'0 0.0
2018-Jun-17 11:07N 35°31' E 139°50'0 0.0
2018-Jun-17 10:55N 35°31' E 139°50'0 0.0
2018-Jun-17 10:28N 35°31' E 139°50'0 0.0
2018-Jun-17 09:58N 35°31' E 139°50'0 0.0
2018-Jun-17 09:22N 35°31' E 139°50'0 0.0
2018-Jun-17 08:58N 35°31' E 139°50'0 0.0
2018-Jun-17 08:25N 35°31' E 139°50'0 0.1
2018-Jun-17 07:58N 35°31' E 139°50'4 7.0
2018-Jun-17 07:23N 35°27' E 139°50'512.5
2018-Jun-17 07:00N 35°23' E 139°46'611.8
2018-Jun-17 06:30N 35°18' E 139°45'611.8
2018-Jun-17 06:00N 35°12' E 139°47'9 0.2
2018-Jun-15 08:48N 35°05' E 139°40'414.0
2018-Jun-15 08:30N 35°08' E 139°43'713.2
2018-Jun-15 08:00N 35°14' E 139°46'612.5
2018-Jun-15 07:30N 35°20' E 139°43'611.6
2018-Jun-15 07:00N 35°25' E 139°45'713.7
2018-Jun-15 06:30N 35°30' E 139°51'4 0.2
2018-Jun-14 09:54N 35°32' E 139°56'612.1
2018-Jun-14 09:22N 35°27' E 139°50'412.1
2018-Jun-14 09:00N 35°24' E 139°46'611.7
2018-Jun-14 08:30N 35°18' E 139°44'612.1
2018-Jun-14 08:00N 35°12' E 139°47'  

Dump ship's entire track history